createdAt,value
2019-02-15T00:00:37.765Z,294.82
2019-02-15T00:01:38.006Z,294.10
2019-02-15T00:02:38.218Z,293.93
2019-02-15T00:03:38.462Z,294.22
2019-02-15T00:04:38.802Z,294.88
2019-02-15T00:05:38.908Z,294.41
2019-02-15T00:06:39.151Z,294.93
2019-02-15T00:07:39.364Z,294.28
2019-02-15T00:08:39.581Z,294.21
2019-02-15T00:09:39.841Z,294.06
2019-02-15T00:10:40.084Z,294.31
2019-02-15T00:11:40.328Z,293.94
2019-02-15T00:12:40.655Z,294.16
2019-02-15T00:13:40.742Z,294.26
2019-02-15T00:14:41.018Z,293.99
2019-02-15T00:15:41.239Z,294.25
2019-02-15T00:16:41.477Z,294.60
2019-02-15T00:17:41.689Z,293.74
2019-02-15T00:18:41.923Z,293.80
2019-02-15T00:19:42.154Z,293.92
2019-02-15T00:20:42.475Z,294.29
2019-02-15T00:21:42.621Z,293.82
2019-02-15T00:22:42.826Z,294.27
2019-02-15T00:23:43.067Z,294.11
2019-02-15T00:24:43.311Z,294.77
2019-02-15T00:25:43.518Z,295.11
2019-02-15T00:26:43.773Z,295.12
2019-02-15T00:27:44.002Z,295.49
2019-02-15T00:28:44.275Z,294.95
2019-02-15T00:29:44.456Z,295.11
2019-02-15T00:30:44.693Z,295.00
2019-02-15T00:31:44.931Z,295.26
2019-02-15T00:32:45.143Z,294.49
2019-02-15T00:33:45.376Z,294.20
2019-02-15T00:34:45.628Z,293.81
2019-02-15T00:35:45.839Z,294.32
2019-02-15T00:36:46.112Z,294.45
2019-02-15T00:37:46.365Z,294.63
2019-02-15T00:38:46.529Z,293.82
2019-02-15T00:39:46.779Z,294.24
2019-02-15T00:40:46.999Z,294.58
2019-02-15T00:41:47.239Z,294.29
2019-02-15T00:42:47.432Z,294.03
2019-02-15T00:43:47.679Z,293.87
2019-02-15T00:44:47.946Z,293.74
2019-02-15T00:45:48.321Z,293.58
2019-02-15T00:46:48.403Z,293.07
2019-02-15T00:47:48.612Z,293.45
2019-02-15T00:48:49.095Z,293.14
2019-02-15T00:49:49.094Z,294.02
2019-02-15T00:50:49.325Z,294.78
2019-02-15T00:51:49.579Z,299.60
2019-02-15T00:52:49.774Z,295.08
2019-02-15T00:53:50.084Z,296.98
2019-02-15T00:54:50.243Z,295.65
2019-02-15T00:55:50.456Z,294.17
2019-02-15T00:56:50.706Z,294.40
2019-02-15T00:57:50.934Z,294.40
2019-02-15T00:58:51.152Z,294.29
2019-02-15T00:59:51.390Z,294.53
2019-02-15T01:00:51.628Z,294.37
2019-02-15T01:01:51.898Z,294.58
2019-02-15T01:02:52.085Z,294.11
2019-02-15T01:03:52.322Z,294.05
2019-02-15T01:04:52.553Z,294.28
2019-02-15T01:05:52.783Z,294.12
2019-02-15T01:06:53.047Z,294.13
2019-02-15T01:07:53.278Z,293.85
2019-02-15T01:08:53.486Z,294.53
2019-02-15T01:09:53.796Z,294.24
2019-02-15T01:10:53.918Z,294.59
2019-02-15T01:11:54.202Z,294.21
2019-02-15T01:12:54.430Z,294.06
2019-02-15T01:13:54.642Z,293.46
2019-02-15T01:14:54.890Z,294.06
2019-02-15T01:15:55.104Z,294.58
2019-02-15T01:16:55.328Z,293.93
2019-02-15T01:17:55.611Z,293.62
2019-02-15T01:18:55.920Z,294.58
2019-02-15T01:19:56.056Z,294.27
2019-02-15T01:20:56.269Z,293.90
2019-02-15T01:21:56.520Z,294.40
2019-02-15T01:22:56.746Z,294.45
2019-02-15T01:23:56.960Z,294.07
2019-02-15T01:24:57.206Z,294.24
2019-02-15T01:25:57.420Z,293.96
2019-02-15T01:26:57.753Z,294.18
2019-02-15T01:27:57.893Z,294.50
2019-02-15T01:28:58.108Z,294.39
2019-02-15T01:29:58.358Z,294.27
2019-02-15T01:30:58.577Z,293.80
2019-02-15T01:31:58.830Z,294.03
2019-02-15T01:32:59.034Z,294.25
2019-02-15T01:33:59.269Z,294.40
2019-02-15T01:34:59.632Z,293.99
2019-02-15T01:35:59.731Z,294.28
2019-02-15T01:36:59.984Z,294.55
2019-02-15T01:38:00.192Z,294.26
2019-02-15T01:39:00.427Z,294.69
2019-02-15T01:40:00.677Z,294.73
2019-02-15T01:41:00.888Z,293.83
2019-02-15T01:42:01.223Z,294.03
2019-02-15T01:43:01.403Z,294.02
2019-02-15T01:44:01.546Z,294.70
2019-02-15T01:45:01.818Z,294.64
2019-02-15T01:46:02.043Z,294.47
2019-02-15T01:47:02.273Z,294.62
2019-02-15T01:48:02.544Z,293.79
2019-02-15T01:49:02.728Z,294.42
2019-02-15T01:50:02.969Z,294.04
2019-02-15T01:51:03.263Z,293.51
2019-02-15T01:52:03.474Z,293.76
2019-02-15T01:53:03.674Z,292.92
2019-02-15T01:54:03.896Z,293.61
2019-02-15T01:55:04.101Z,294.03
2019-02-15T01:56:04.330Z,294.12
2019-02-15T01:57:04.588Z,292.98
2019-02-15T01:58:04.838Z,294.08
2019-02-15T01:59:05.046Z,293.74
2019-02-15T02:00:05.399Z,293.96
2019-02-15T02:01:05.522Z,294.05
2019-02-15T02:02:05.762Z,293.67
2019-02-15T02:03:06.047Z,293.46
2019-02-15T02:04:06.222Z,294.34
2019-02-15T02:05:06.452Z,293.95
2019-02-15T02:06:06.676Z,294.19
2019-02-15T02:07:06.923Z,294.33
2019-02-15T02:08:07.341Z,293.95
2019-02-15T02:09:07.410Z,294.06
2019-02-15T02:10:07.624Z,294.52
2019-02-15T02:11:07.854Z,294.19
2019-02-15T02:12:08.105Z,294.70
2019-02-15T02:13:08.336Z,294.42
2019-02-15T02:14:08.548Z,295.02
2019-02-15T02:15:08.780Z,294.78
2019-02-15T02:16:09.041Z,294.57
2019-02-15T02:17:09.226Z,294.78
2019-02-15T02:18:09.475Z,294.44
2019-02-15T02:19:09.691Z,293.68
2019-02-15T02:20:09.925Z,293.78
2019-02-15T02:21:10.170Z,293.67
2019-02-15T02:22:10.388Z,293.86
2019-02-15T02:23:10.620Z,294.11
2019-02-15T02:24:10.943Z,294.52
2019-02-15T02:25:11.073Z,295.04
2019-02-15T02:26:11.541Z,294.30
2019-02-15T02:27:11.534Z,294.37
2019-02-15T02:28:11.792Z,294.46
2019-02-15T02:29:12.002Z,294.72
2019-02-15T02:30:12.247Z,294.19
2019-02-15T02:31:12.505Z,294.00
2019-02-15T02:32:12.736Z,294.34
2019-02-15T02:33:13.011Z,293.57
2019-02-15T02:34:13.175Z,294.44
2019-02-15T02:35:13.402Z,294.57
2019-02-15T02:36:13.663Z,294.21
2019-02-15T02:37:13.879Z,294.25
2019-02-15T02:38:14.146Z,294.56
2019-02-15T02:39:14.340Z,294.50
2019-02-15T02:40:14.569Z,294.86
2019-02-15T02:41:14.951Z,294.82
2019-02-15T02:42:15.082Z,294.00
2019-02-15T02:43:15.344Z,293.60
2019-02-15T02:44:15.538Z,294.18
2019-02-15T02:45:15.750Z,293.71
2019-02-15T02:46:16.016Z,293.28
2019-02-15T02:47:16.243Z,293.40
2019-02-15T02:48:16.522Z,293.13
2019-02-15T02:49:16.817Z,293.23
2019-02-15T02:50:16.914Z,293.46
2019-02-15T02:51:17.174Z,293.75
2019-02-15T02:52:17.399Z,293.21
2019-02-15T02:53:17.647Z,293.78
2019-02-15T02:54:17.858Z,294.69
2019-02-15T02:55:18.088Z,293.63
2019-02-15T02:56:18.328Z,293.92
2019-02-15T02:57:18.570Z,293.86
2019-02-15T02:58:18.768Z,293.32
2019-02-15T02:59:18.984Z,293.87
2019-02-15T03:00:19.236Z,294.61
2019-02-15T03:01:19.470Z,294.13
2019-02-15T03:02:19.669Z,293.73
2019-02-15T03:03:19.935Z,293.88
2019-02-15T03:04:20.167Z,293.89
2019-02-15T03:05:20.453Z,293.22
2019-02-15T03:06:20.620Z,293.45
2019-02-15T03:07:20.844Z,293.25
2019-02-15T03:08:21.078Z,293.29
2019-02-15T03:09:21.333Z,293.38
2019-02-15T03:10:21.610Z,294.06
2019-02-15T03:11:21.823Z,293.40
2019-02-15T03:12:22.039Z,293.77
2019-02-15T03:13:22.291Z,293.20
2019-02-15T03:14:22.608Z,293.69
2019-02-15T03:15:22.771Z,294.35
2019-02-15T03:16:23.001Z,293.18
2019-02-15T03:17:23.219Z,293.51
2019-02-15T03:18:23.467Z,293.75
2019-02-15T03:19:23.675Z,293.30
2019-02-15T03:20:30.827Z,293.68
2019-02-15T03:21:25.174Z,293.47
2019-02-15T03:22:24.496Z,293.64
2019-02-15T03:23:24.616Z,293.58
2019-02-15T03:24:24.837Z,293.01
2019-02-15T03:25:25.088Z,292.92
2019-02-15T03:26:25.329Z,293.93
2019-02-15T03:27:25.554Z,293.06
2019-02-15T03:28:25.772Z,293.13
2019-02-15T03:29:26.019Z,293.58
2019-02-15T03:30:26.291Z,293.43
2019-02-15T03:31:26.486Z,293.41
2019-02-15T03:32:26.686Z,293.91
2019-02-15T03:33:26.937Z,293.50
2019-02-15T03:34:27.171Z,293.13
2019-02-15T03:35:27.360Z,293.62
2019-02-15T03:36:27.616Z,293.07
2019-02-15T03:37:27.839Z,293.52
2019-02-15T03:38:28.167Z,293.80
2019-02-15T03:39:28.304Z,293.69
2019-02-15T03:40:28.521Z,294.25
2019-02-15T03:41:28.788Z,293.98
2019-02-15T03:42:28.966Z,293.78
2019-02-15T03:43:29.201Z,293.50
2019-02-15T03:44:29.462Z,293.33
2019-02-15T03:45:29.676Z,293.52
2019-02-15T03:46:29.993Z,293.30
2019-02-15T03:47:30.141Z,294.24
2019-02-15T03:48:30.409Z,294.46
2019-02-15T03:49:30.623Z,294.47
2019-02-15T03:50:30.841Z,294.28
2019-02-15T03:51:31.088Z,294.15
2019-02-15T03:52:31.294Z,294.20
2019-02-15T03:53:31.528Z,294.65
2019-02-15T03:54:31.792Z,294.34
2019-02-15T03:55:32.081Z,294.21
2019-02-15T03:56:32.256Z,294.37
2019-02-15T03:57:32.428Z,294.75
2019-02-15T03:58:32.660Z,294.56
2019-02-15T03:59:32.924Z,294.30
2019-02-15T04:00:33.137Z,294.00
2019-02-15T04:01:33.429Z,294.33
2019-02-15T04:02:33.595Z,294.07
2019-02-15T04:03:34.064Z,293.99
2019-02-15T04:04:34.407Z,294.35
2019-02-15T04:05:34.401Z,294.30
2019-02-15T04:06:34.657Z,294.13
2019-02-15T04:07:34.859Z,293.87
2019-02-15T04:08:35.099Z,293.84
2019-02-15T04:09:35.321Z,293.79
2019-02-15T04:10:35.563Z,293.81
2019-02-15T04:11:35.863Z,293.87
2019-02-15T04:12:35.993Z,293.59
2019-02-15T04:13:36.229Z,293.82
2019-02-15T04:14:36.484Z,294.28
2019-02-15T04:15:36.677Z,294.13
2019-02-15T04:16:36.929Z,293.93
2019-02-15T04:17:37.149Z,293.59
2019-02-15T04:18:37.408Z,293.36
2019-02-15T04:19:37.655Z,293.27
2019-02-15T04:20:37.802Z,293.15
2019-02-15T04:21:38.094Z,293.16
2019-02-15T04:22:38.315Z,293.48
2019-02-15T04:23:38.566Z,293.97
2019-02-15T04:24:38.802Z,293.77
2019-02-15T04:25:39.044Z,293.33
2019-02-15T04:26:39.234Z,292.73
2019-02-15T04:27:39.521Z,293.59
2019-02-15T04:28:39.769Z,293.22
2019-02-15T04:29:39.975Z,293.31
2019-02-15T04:30:40.188Z,293.77
2019-02-15T04:31:40.437Z,293.26
2019-02-15T04:32:40.647Z,293.38
2019-02-15T04:33:40.879Z,293.62
2019-02-15T04:34:41.122Z,293.51
2019-02-15T04:35:41.356Z,293.91
2019-02-15T04:36:41.718Z,293.60
2019-02-15T04:37:41.819Z,292.90
2019-02-15T04:38:42.052Z,293.26
2019-02-15T04:39:42.296Z,293.40
2019-02-15T04:40:42.505Z,293.80
2019-02-15T04:41:42.763Z,293.43
2019-02-15T04:42:42.980Z,292.83
2019-02-15T04:43:43.190Z,292.87
2019-02-15T04:44:43.544Z,293.08
2019-02-15T04:45:43.665Z,293.87
2019-02-15T04:46:43.911Z,293.78
2019-02-15T04:47:44.138Z,293.39
2019-02-15T04:48:44.333Z,293.84
2019-02-15T04:49:44.617Z,293.90
2019-02-15T04:50:44.811Z,293.14
2019-02-15T04:51:45.044Z,293.73
2019-02-15T04:52:45.322Z,293.78
2019-02-15T04:53:45.466Z,293.95
2019-02-15T04:54:45.734Z,293.73
2019-02-15T04:55:45.951Z,293.58
2019-02-15T04:56:46.180Z,293.60
2019-02-15T04:57:46.439Z,293.69
2019-02-15T04:58:46.648Z,294.14
2019-02-15T04:59:46.915Z,293.43
2019-02-15T05:00:47.113Z,293.62
2019-02-15T05:01:47.313Z,293.57
2019-02-15T05:02:47.587Z,293.73
2019-02-15T05:03:47.791Z,294.32
2019-02-15T05:04:48.067Z,293.53
2019-02-15T05:05:48.233Z,293.79
2019-02-15T05:06:48.468Z,293.88
2019-02-15T05:07:48.728Z,294.00
2019-02-15T05:08:48.980Z,293.92
2019-02-15T05:09:49.282Z,294.17
2019-02-15T05:10:49.402Z,294.02
2019-02-15T05:11:49.632Z,293.86
2019-02-15T05:12:49.910Z,294.15
2019-02-15T05:13:50.118Z,293.98
2019-02-15T05:14:53.097Z,294.53
2019-02-15T05:15:50.577Z,295.00
2019-02-15T05:16:50.794Z,294.34
2019-02-15T05:17:51.197Z,294.44
2019-02-15T05:18:51.281Z,295.49
2019-02-15T05:19:51.541Z,294.68
2019-02-15T05:20:51.755Z,294.37
2019-02-15T05:21:51.951Z,294.34
2019-02-15T05:22:52.501Z,294.28
2019-02-15T05:23:52.458Z,294.68
2019-02-15T05:24:52.686Z,294.45
2019-02-15T05:25:52.990Z,294.72
2019-02-15T05:26:53.120Z,294.20
2019-02-15T05:27:53.381Z,293.74
2019-02-15T05:28:53.600Z,294.67
2019-02-15T05:29:53.835Z,294.96
2019-02-15T05:30:54.077Z,295.72
2019-02-15T05:31:54.306Z,295.06
2019-02-15T05:32:54.584Z,294.75
2019-02-15T05:33:54.791Z,294.43
2019-02-15T05:34:54.993Z,294.77
2019-02-15T05:35:55.233Z,294.26
2019-02-15T05:36:55.444Z,294.42
2019-02-15T05:37:55.695Z,293.88
2019-02-15T05:38:55.903Z,294.30
2019-02-15T05:39:56.128Z,294.91
2019-02-15T05:40:56.376Z,294.80
2019-02-15T05:41:56.633Z,294.45
2019-02-15T05:42:57.093Z,294.45
2019-02-15T05:43:57.075Z,294.15
2019-02-15T05:45:03.314Z,295.09
2019-02-15T05:45:58.564Z,294.82
2019-02-15T05:46:57.774Z,294.90
2019-02-15T05:47:58.047Z,295.27
2019-02-15T05:48:58.242Z,295.11
2019-02-15T05:49:58.496Z,295.88
2019-02-15T05:50:58.811Z,295.25
2019-02-15T05:51:58.935Z,295.78
2019-02-15T05:52:59.194Z,295.56
2019-02-15T05:53:59.394Z,295.57
2019-02-15T05:54:59.622Z,294.90
2019-02-15T05:55:59.854Z,295.05
2019-02-15T05:57:00.087Z,294.76
2019-02-15T05:58:00.370Z,295.25
2019-02-15T05:59:00.689Z,295.20
2019-02-15T06:00:00.788Z,295.53
2019-02-15T06:01:01.017Z,295.89
2019-02-15T06:02:01.244Z,295.08
2019-02-15T06:03:01.520Z,294.83
2019-02-15T06:04:01.712Z,295.29
2019-02-15T06:05:01.951Z,295.44
2019-02-15T06:06:02.199Z,295.36
2019-02-15T06:07:02.448Z,295.66
2019-02-15T06:08:02.669Z,295.66
2019-02-15T06:09:02.866Z,295.50
2019-02-15T06:10:03.113Z,295.50
2019-02-15T06:11:07.515Z,295.90
2019-02-15T06:12:03.543Z,295.55
2019-02-15T06:13:03.790Z,295.99
2019-02-15T06:14:04.022Z,295.73
2019-02-15T06:15:14.439Z,295.77
2019-02-15T06:16:05.483Z,295.45
2019-02-15T06:17:04.698Z,294.89
2019-02-15T06:18:04.934Z,296.19
2019-02-15T06:19:05.156Z,296.17
2019-02-15T06:20:05.413Z,296.10
2019-02-15T06:21:05.652Z,296.38
2019-02-15T06:22:05.872Z,296.55
2019-02-15T06:23:06.165Z,296.22
2019-02-15T06:24:06.408Z,295.85
2019-02-15T06:25:06.590Z,296.39
2019-02-15T06:26:06.820Z,296.09
2019-02-15T06:27:07.024Z,296.38
2019-02-15T06:28:07.287Z,296.01
2019-02-15T06:29:07.491Z,296.25
2019-02-15T06:30:07.710Z,296.13
2019-02-15T06:31:07.986Z,296.12
2019-02-15T06:32:08.320Z,297.83
2019-02-15T06:33:08.436Z,297.44
2019-02-15T06:34:08.658Z,298.19
2019-02-15T06:35:08.919Z,298.30
2019-02-15T06:36:09.163Z,298.17
2019-02-15T06:37:09.378Z,297.86
2019-02-15T06:38:09.603Z,297.04
2019-02-15T06:39:09.854Z,296.98
2019-02-15T06:40:10.168Z,296.85
2019-02-15T06:41:12.178Z,297.20
2019-02-15T06:42:10.546Z,297.56
2019-02-15T06:43:10.784Z,296.73
2019-02-15T06:44:11.036Z,297.29
2019-02-15T06:45:11.228Z,297.07
2019-02-15T06:46:11.496Z,297.38
2019-02-15T06:47:11.704Z,296.25
2019-02-15T06:48:11.972Z,296.88
2019-02-15T06:49:12.236Z,296.55
2019-02-15T06:50:12.371Z,296.58
2019-02-15T06:51:12.638Z,296.54
2019-02-15T06:52:12.867Z,297.09
2019-02-15T06:53:13.098Z,297.28
2019-02-15T06:54:13.355Z,297.15
2019-02-15T06:55:13.556Z,296.46
2019-02-15T06:56:13.862Z,296.90
2019-02-15T06:57:13.977Z,297.63
2019-02-15T06:58:14.224Z,297.03
2019-02-15T06:59:14.493Z,297.90
2019-02-15T07:00:14.686Z,297.67
2019-02-15T07:01:14.937Z,298.04
2019-02-15T07:02:15.169Z,298.96
2019-02-15T07:03:15.375Z,298.80
2019-02-15T07:04:15.685Z,299.34
2019-02-15T07:05:15.915Z,298.08
2019-02-15T07:06:16.096Z,299.64
2019-02-15T07:07:16.291Z,297.61
2019-02-15T07:08:16.522Z,298.27
2019-02-15T07:09:16.790Z,298.09
2019-02-15T07:10:17.002Z,298.22
2019-02-15T07:11:17.245Z,297.75
2019-02-15T07:12:17.472Z,298.58
2019-02-15T07:13:17.804Z,298.43
2019-02-15T07:14:17.943Z,298.53
2019-02-15T07:15:18.147Z,298.57
2019-02-15T07:16:18.397Z,298.36
2019-02-15T07:17:18.654Z,297.68
2019-02-15T07:18:18.820Z,297.86
2019-02-15T07:19:19.074Z,298.23
2019-02-15T07:20:19.298Z,297.36
2019-02-15T07:21:19.921Z,297.60
2019-02-15T07:22:19.761Z,297.58
2019-02-15T07:23:20.018Z,297.92
2019-02-15T07:24:20.240Z,297.92
2019-02-15T07:25:20.464Z,297.52
2019-02-15T07:26:20.715Z,297.74
2019-02-15T07:27:20.927Z,297.60
2019-02-15T07:28:21.157Z,297.49
2019-02-15T07:29:21.450Z,297.42
2019-02-15T07:30:21.600Z,297.48
2019-02-15T07:31:21.854Z,297.67
2019-02-15T07:32:22.083Z,297.08
2019-02-15T07:33:22.311Z,297.89
2019-02-15T07:34:22.584Z,298.43
2019-02-15T07:35:22.781Z,298.26
2019-02-15T07:36:22.996Z,297.52
2019-02-15T07:37:23.300Z,297.88
2019-02-15T07:38:23.461Z,297.98
2019-02-15T07:39:23.717Z,298.33
2019-02-15T07:40:23.938Z,298.01
2019-02-15T07:41:24.151Z,297.55
2019-02-15T07:42:24.416Z,297.29
2019-02-15T07:43:24.662Z,297.33
2019-02-15T07:44:24.936Z,297.39
2019-02-15T07:45:25.147Z,297.60
2019-02-15T07:46:25.413Z,297.77
2019-02-15T07:47:25.649Z,297.44
2019-02-15T07:48:25.811Z,298.06
2019-02-15T07:49:26.796Z,298.40
2019-02-15T07:50:26.309Z,297.39
2019-02-15T07:51:26.520Z,297.33
2019-02-15T07:52:26.735Z,297.30
2019-02-15T07:53:26.982Z,297.96
2019-02-15T07:54:27.361Z,297.24
2019-02-15T07:55:27.466Z,297.30
2019-02-15T07:56:27.679Z,297.69
2019-02-15T07:57:27.907Z,296.95
2019-02-15T07:58:28.132Z,296.89
2019-02-15T07:59:28.378Z,296.57
2019-02-15T08:00:28.625Z,296.56
2019-02-15T08:01:28.834Z,296.45
2019-02-15T08:02:29.144Z,296.39
2019-02-15T08:03:29.283Z,296.86
2019-02-15T08:04:29.533Z,296.75
2019-02-15T08:05:29.757Z,296.59
2019-02-15T08:06:29.977Z,296.80
2019-02-15T08:07:30.234Z,296.34
2019-02-15T08:08:30.434Z,296.75
2019-02-15T08:09:30.686Z,295.94
2019-02-15T08:10:30.961Z,296.12
2019-02-15T08:11:31.110Z,296.08
2019-02-15T08:12:31.369Z,295.99
2019-02-15T08:13:31.580Z,295.89
2019-02-15T08:14:31.823Z,295.49
2019-02-15T08:15:36.226Z,295.74
2019-02-15T08:16:32.289Z,296.14
2019-02-15T08:17:32.516Z,296.05
2019-02-15T08:18:32.787Z,295.77
2019-02-15T08:19:32.952Z,295.79
2019-02-15T08:20:33.181Z,296.06
2019-02-15T08:21:33.427Z,295.76
2019-02-15T08:22:33.670Z,295.94
2019-02-15T08:23:33.883Z,295.99
2019-02-15T08:24:34.130Z,295.94
2019-02-15T08:25:34.357Z,295.52
2019-02-15T08:26:34.632Z,295.73
2019-02-15T08:27:34.908Z,295.63
2019-02-15T08:28:35.043Z,296.08
2019-02-15T08:29:35.285Z,295.78
2019-02-15T08:30:35.498Z,296.01
2019-02-15T08:31:35.749Z,296.19
2019-02-15T08:32:35.993Z,295.64
2019-02-15T08:33:36.207Z,295.76
2019-02-15T08:34:36.456Z,296.48
2019-02-15T08:35:36.816Z,295.81
2019-02-15T08:36:36.928Z,295.87
2019-02-15T08:37:37.181Z,296.14
2019-02-15T08:38:37.395Z,295.51
2019-02-15T08:39:37.630Z,296.12
2019-02-15T08:40:37.889Z,295.98
2019-02-15T08:41:38.085Z,295.68
2019-02-15T08:42:38.337Z,295.46
2019-02-15T08:43:38.673Z,295.65
2019-02-15T08:44:38.783Z,296.42
2019-02-15T08:45:39.032Z,296.21
2019-02-15T08:46:39.272Z,296.07
2019-02-15T08:47:39.784Z,295.90
2019-02-15T08:48:45.951Z,295.65
2019-02-15T08:49:40.956Z,295.45
2019-02-15T08:50:40.224Z,295.40
2019-02-15T08:51:40.461Z,295.90
2019-02-15T08:52:40.630Z,296.41
2019-02-15T08:53:40.851Z,295.73
2019-02-15T08:54:41.095Z,296.09
2019-02-15T08:55:41.337Z,295.90
2019-02-15T08:56:41.558Z,295.96
2019-02-15T08:57:41.801Z,295.89
2019-02-15T08:58:42.017Z,295.94
2019-02-15T08:59:42.263Z,296.30
2019-02-15T09:00:42.774Z,295.38
2019-02-15T09:01:42.720Z,296.86
2019-02-15T09:02:42.965Z,295.88
2019-02-15T09:03:43.165Z,296.00
2019-02-15T09:04:43.393Z,295.79
2019-02-15T09:05:43.649Z,296.95
2019-02-15T09:06:43.877Z,296.40
2019-02-15T09:07:44.150Z,296.74
2019-02-15T09:08:44.426Z,296.48
2019-02-15T09:09:44.544Z,296.51
2019-02-15T09:10:44.807Z,296.17
2019-02-15T09:11:45.019Z,296.23
2019-02-15T09:12:45.263Z,295.86
2019-02-15T09:13:45.484Z,296.25
2019-02-15T09:14:45.702Z,296.63
2019-02-15T09:15:45.944Z,296.65
2019-02-15T09:16:46.264Z,296.01
2019-02-15T09:17:46.416Z,296.19
2019-02-15T09:18:46.634Z,296.35
2019-02-15T09:19:47.044Z,296.00
2019-02-15T09:20:47.122Z,296.34
2019-02-15T09:21:47.339Z,296.45
2019-02-15T09:22:47.589Z,296.20
2019-02-15T09:23:47.802Z,296.33
2019-02-15T09:24:48.059Z,296.73
2019-02-15T09:25:48.263Z,297.51
2019-02-15T09:26:48.498Z,296.71
2019-02-15T09:27:48.727Z,296.53
2019-02-15T09:28:48.942Z,296.65
2019-02-15T09:29:49.177Z,296.40
2019-02-15T09:30:49.422Z,295.96
2019-02-15T09:31:49.635Z,297.37
2019-02-15T09:32:49.955Z,296.40
2019-02-15T09:33:50.093Z,296.67
2019-02-15T09:34:50.324Z,296.88
2019-02-15T09:35:50.572Z,295.91
2019-02-15T09:36:50.808Z,296.99
2019-02-15T09:37:51.031Z,296.29
2019-02-15T09:38:51.253Z,296.22
2019-02-15T09:39:51.493Z,296.70
2019-02-15T09:40:51.779Z,296.59
2019-02-15T09:41:52.032Z,296.29
2019-02-15T09:42:52.178Z,296.27
2019-02-15T09:43:52.424Z,296.00
2019-02-15T09:44:52.646Z,296.33
2019-02-15T09:45:52.903Z,296.01
2019-02-15T09:46:53.128Z,296.54
2019-02-15T09:47:53.351Z,295.90
2019-02-15T09:48:53.617Z,296.21
2019-02-15T09:49:53.901Z,295.96
2019-02-15T09:50:54.068Z,296.16
2019-02-15T09:51:55.507Z,297.08
2019-02-15T09:52:54.497Z,296.34
2019-02-15T09:53:54.740Z,296.25
2019-02-15T09:54:54.992Z,295.62
2019-02-15T09:55:55.237Z,296.73
2019-02-15T09:56:55.503Z,296.85
2019-02-15T09:57:55.776Z,296.64
2019-02-15T09:58:55.908Z,296.61
2019-02-15T09:59:56.132Z,296.68
2019-02-15T10:00:56.385Z,296.25
2019-02-15T10:01:56.610Z,295.76
2019-02-15T10:02:56.830Z,294.83
2019-02-15T10:03:57.081Z,295.68
2019-02-15T10:04:57.276Z,296.12
2019-02-15T10:05:57.587Z,296.19
2019-02-15T10:06:57.745Z,296.32
2019-02-15T10:07:57.973Z,296.00
2019-02-15T10:08:58.220Z,295.77
2019-02-15T10:09:58.420Z,295.67
2019-02-15T10:10:58.674Z,294.92
2019-02-15T10:11:58.912Z,295.24
2019-02-15T10:12:59.128Z,295.78
2019-02-15T10:13:59.430Z,295.98
2019-02-15T10:14:59.581Z,295.75
2019-02-15T10:15:59.808Z,295.87
2019-02-15T10:17:00.027Z,295.39
2019-02-15T10:18:00.273Z,295.84
2019-02-15T10:19:00.529Z,295.42
2019-02-15T10:20:00.755Z,294.91
2019-02-15T10:21:00.974Z,295.72
2019-02-15T10:22:01.207Z,296.10
2019-02-15T10:23:01.483Z,295.55
2019-02-15T10:24:01.695Z,296.03
2019-02-15T10:25:01.932Z,295.65
2019-02-15T10:26:02.148Z,296.30
2019-02-15T10:27:02.358Z,295.66
2019-02-15T10:28:02.599Z,295.70
2019-02-15T10:29:02.861Z,295.12
2019-02-15T10:30:03.079Z,295.16
2019-02-15T10:31:03.449Z,295.34
2019-02-15T10:32:03.566Z,294.95
2019-02-15T10:33:03.792Z,295.33
2019-02-15T10:34:04.034Z,295.32
2019-02-15T10:35:04.279Z,295.59
2019-02-15T10:36:04.497Z,295.81
2019-02-15T10:37:04.704Z,295.23
2019-02-15T10:38:04.927Z,295.28
2019-02-15T10:39:05.521Z,295.12
2019-02-15T10:40:05.417Z,295.05
2019-02-15T10:41:05.633Z,295.28
2019-02-15T10:42:05.854Z,295.22
2019-02-15T10:43:06.069Z,295.14
2019-02-15T10:44:06.317Z,295.10
2019-02-15T10:45:06.557Z,294.80
2019-02-15T10:46:06.776Z,295.16
2019-02-15T10:47:13.870Z,294.37
2019-02-15T10:48:08.224Z,295.23
2019-02-15T10:49:07.464Z,295.09
2019-02-15T10:50:07.683Z,294.02
2019-02-15T10:51:07.919Z,294.46
2019-02-15T10:52:08.178Z,294.77
2019-02-15T10:53:08.402Z,294.44
2019-02-15T10:54:08.644Z,293.62
2019-02-15T10:55:08.929Z,293.46
2019-02-15T10:56:09.076Z,293.37
2019-02-15T10:57:09.366Z,293.22
2019-02-15T10:58:09.583Z,294.21
2019-02-15T10:59:11.122Z,294.24
2019-02-15T11:00:10.053Z,294.74
2019-02-15T11:01:10.260Z,293.73
2019-02-15T11:02:10.510Z,293.65
2019-02-15T11:03:10.756Z,294.30
2019-02-15T11:04:11.076Z,293.73
2019-02-15T11:05:11.215Z,294.29
2019-02-15T11:06:11.411Z,294.51
2019-02-15T11:07:11.711Z,294.62
2019-02-15T11:08:11.888Z,294.85
2019-02-15T11:09:12.135Z,293.01
2019-02-15T11:10:12.352Z,293.95
2019-02-15T11:11:12.582Z,292.85
2019-02-15T11:12:12.935Z,294.12
2019-02-15T11:13:13.034Z,292.52
2019-02-15T11:14:13.291Z,292.77
2019-02-15T11:15:13.498Z,292.53
2019-02-15T11:16:13.732Z,292.22
2019-02-15T11:17:13.989Z,292.06
2019-02-15T11:18:14.202Z,293.19
2019-02-15T11:19:14.464Z,293.43
2019-02-15T11:20:14.789Z,292.22
2019-02-15T11:21:14.957Z,293.01
2019-02-15T11:22:22.113Z,293.08
2019-02-15T11:23:15.417Z,291.79
2019-02-15T11:24:15.609Z,293.35
2019-02-15T11:25:15.824Z,292.58
2019-02-15T11:26:24.275Z,293.73
2019-02-15T11:27:22.974Z,293.88
2019-02-15T11:28:16.556Z,293.45
2019-02-15T11:29:16.736Z,293.09
2019-02-15T11:30:16.973Z,293.07
2019-02-15T11:31:17.206Z,292.82
2019-02-15T11:32:17.472Z,292.72
2019-02-15T11:33:17.677Z,291.74
2019-02-15T11:34:17.909Z,292.44
2019-02-15T11:35:18.109Z,291.07
2019-02-15T11:36:18.447Z,292.99
2019-02-15T11:37:18.625Z,292.10
2019-02-15T11:38:18.831Z,296.75
2019-02-15T11:39:19.073Z,292.98
2019-02-15T11:40:19.285Z,293.56
2019-02-15T11:41:19.545Z,292.37
2019-02-15T11:42:19.779Z,292.82
2019-02-15T11:43:19.987Z,292.33
2019-02-15T11:44:20.258Z,292.98
2019-02-15T11:45:20.556Z,290.88
2019-02-15T11:46:20.719Z,292.20
2019-02-15T11:47:20.941Z,290.14
2019-02-15T11:48:21.150Z,289.28
2019-02-15T11:49:21.430Z,291.20
2019-02-15T11:50:21.609Z,291.51
2019-02-15T11:51:21.851Z,292.37
2019-02-15T11:52:22.088Z,292.00
2019-02-15T11:53:22.437Z,287.96
2019-02-15T11:54:23.670Z,287.84
2019-02-15T11:55:22.758Z,289.05
2019-02-15T11:56:22.999Z,289.35
2019-02-15T11:57:23.253Z,289.36
2019-02-15T11:58:23.467Z,289.28
2019-02-15T11:59:23.698Z,289.46
2019-02-15T12:00:23.942Z,290.01
2019-02-15T12:01:24.261Z,290.45
2019-02-15T12:02:24.424Z,289.26
2019-02-15T12:03:24.652Z,290.00
2019-02-15T12:04:24.878Z,291.71
2019-02-15T12:05:25.119Z,291.02
2019-02-15T12:06:25.335Z,290.73
2019-02-15T12:07:25.581Z,288.37
2019-02-15T12:08:25.786Z,288.80
2019-02-15T12:09:26.051Z,289.85
2019-02-15T12:10:26.259Z,289.83
2019-02-15T12:11:26.479Z,289.16
2019-02-15T12:12:26.726Z,288.56
2019-02-15T12:13:26.927Z,290.75
2019-02-15T12:14:27.151Z,290.31
2019-02-15T12:15:27.419Z,291.72
2019-02-15T12:16:27.872Z,288.26
2019-02-15T12:17:27.919Z,288.32
2019-02-15T12:18:28.163Z,289.94
2019-02-15T12:19:28.317Z,289.16
2019-02-15T12:20:28.575Z,288.41
2019-02-15T12:21:28.796Z,288.15
2019-02-15T12:22:29.045Z,288.43
2019-02-15T12:23:29.264Z,287.11
2019-02-15T12:24:29.485Z,289.96
2019-02-15T12:25:29.727Z,287.65
2019-02-15T12:26:30.075Z,289.27
2019-02-15T12:27:30.193Z,291.72
2019-02-15T12:28:30.639Z,291.28
2019-02-15T12:29:30.637Z,291.26
2019-02-15T12:30:30.869Z,289.75
2019-02-15T12:31:31.109Z,293.31